Time;durP1;ratioP1;P1;durP2;ratioP2;P2;SDS_P1;SDS_P2;PMS_P1;PMS_P2;Temp;Humidity;BMP_temperature;BMP_pressure;BME280_temperature;BME280_humidity;BME280_pressure;Samples;Min_cycle;Max_cycle;Signal;HPM_P1;HPM_P2
2021/07/10 00:01:20;;;;;;;16.97;7.23;;;19.80;73.60;;;;;;5054751;28;20453;-68
2021/07/10 00:03:47;;;;;;;12.13;6.60;;;19.80;73.00;;;;;;5054495;28;20445;-68
2021/07/10 00:06:13;;;;;;;10.90;6.60;;;19.70;72.70;;;;;;5054705;28;20489;-68
2021/07/10 00:08:42;;;;;;;9.30;6.27;;;19.70;73.10;;;;;;5054799;28;20442;-68
2021/07/10 00:11:08;;;;;;;13.60;7.23;;;19.70;73.20;;;;;;5054687;28;20448;-68
2021/07/10 00:13:35;;;;;;;19.67;7.17;;;19.70;73.40;;;;;;5054703;28;20452;-68
2021/07/10 00:16:03;;;;;;;19.50;7.00;;;19.60;73.10;;;;;;5054431;28;20500;-68
2021/07/10 00:18:29;;;;;;;12.57;6.67;;;19.60;73.10;;;;;;5054533;28;20454;-68
2021/07/10 00:20:56;;;;;;;8.70;6.00;;;19.60;73.30;;;;;;5054481;28;20442;-68
2021/07/10 00:23:23;;;;;;;12.50;6.70;;;19.60;73.30;;;;;;5054455;28;20473;-68
2021/07/10 00:25:51;;;;;;;14.53;7.70;;;19.60;73.20;;;;;;5054328;28;20461;-68
2021/07/10 00:28:17;;;;;;;14.80;7.40;;;19.50;73.40;;;;;;5054297;28;20442;-67
2021/07/10 00:30:44;;;;;;;10.67;7.20;;;19.50;73.30;;;;;;5053988;28;20926;-67
2021/07/10 00:33:11;;;;;;;8.70;6.90;;;19.50;73.60;;;;;;5054253;28;20441;-67
2021/07/10 00:35:39;;;;;;;13.33;8.43;;;19.50;73.50;;;;;;5053823;28;21039;-67
2021/07/10 00:38:06;;;;;;;12.33;7.70;;;19.40;73.50;;;;;;5054198;28;20855;-67
2021/07/10 00:40:33;;;;;;;12.77;8.30;;;19.40;73.70;;;;;;5054133;28;20447;-68
2021/07/10 00:43:02;;;;;;;10.30;6.73;;;19.40;73.80;;;;;;5054119;28;20453;-68
2021/07/10 00:45:29;;;;;;;12.10;7.33;;;19.30;73.80;;;;;;5054057;28;20508;-67
2021/07/10 00:47:56;;;;;;;12.53;6.83;;;19.30;73.80;;;;;;5054227;28;20794;-67
2021/07/10 00:50:25;;;;;;;12.50;7.37;;;19.30;73.70;;;;;;5054050;28;20462;-67
2021/07/10 00:52:52;;;;;;;13.50;7.33;;;19.30;73.80;;;;;;5053914;28;20453;-67
2021/07/10 00:55:19;;;;;;;12.93;7.80;;;19.20;73.70;;;;;;5059429;22;20497;-88
2021/07/10 00:57:47;;;;;;;10.80;7.50;;;19.20;73.70;;;;;;4995416;28;20453;-89
2021/07/10 01:00:18;;;;;;;15.30;8.00;;;19.20;73.80;;;;;;4996352;28;20445;-89
2021/07/10 01:02:47;;;;;;;11.63;6.83;;;19.20;74.10;;;;;;4994399;28;20459;-89
2021/07/10 01:05:17;;;;;;;12.03;7.60;;;19.20;74.10;;;;;;4995213;28;20465;-89
2021/07/10 01:07:44;;;;;;;10.70;6.80;;;19.20;74.20;;;;;;4994722;28;20444;-89
2021/07/10 01:10:12;;;;;;;13.60;6.97;;;19.10;74.20;;;;;;4995234;28;20506;-89
2021/07/10 01:12:42;;;;;;;7.83;7.03;;;19.10;74.30;;;;;;4995131;28;20559;-89
2021/07/10 01:15:11;;;;;;;13.10;8.13;;;19.10;74.00;;;;;;4994835;28;20456;-89
2021/07/10 01:17:42;;;;;;;10.07;8.23;;;19.10;73.90;;;;;;4994644;28;20486;-88
2021/07/10 01:20:12;;;;;;;8.00;7.20;;;19.10;74.20;;;;;;4994678;28;20961;-89
2021/07/10 01:22:41;;;;;;;10.83;7.57;;;19.00;74.10;;;;;;4994990;28;20476;-89
2021/07/10 01:25:10;;;;;;;9.83;7.07;;;19.00;74.50;;;;;;4995751;28;20461;-88
2021/07/10 01:27:37;;;;;;;10.20;7.07;;;19.00;74.90;;;;;;4996343;28;20445;-89
2021/07/10 01:30:08;;;;;;;8.10;7.30;;;18.90;74.80;;;;;;4994491;28;20961;-89
2021/07/10 01:32:36;;;;;;;10.97;7.00;;;18.90;75.30;;;;;;4996419;28;20459;-89
2021/07/10 01:35:03;;;;;;;9.60;6.13;;;18.80;75.10;;;;;;4994988;28;20452;-89
2021/07/10 01:37:30;;;;;;;9.43;6.20;;;18.80;75.10;;;;;;4994434;28;20480;-89
2021/07/10 01:39:58;;;;;;;13.47;8.10;;;18.80;74.90;;;;;;4994489;28;20475;-88
2021/07/10 01:42:25;;;;;;;6.73;6.13;;;18.80;74.90;;;;;;4994744;28;20448;-89
2021/07/10 01:44:52;;;;;;;10.63;6.57;;;18.70;74.80;;;;;;4994689;28;20516;-89
2021/07/10 01:47:19;;;;;;;10.50;7.07;;;18.70;74.80;;;;;;4994463;28;20437;-89
2021/07/10 01:49:46;;;;;;;10.07;6.23;;;18.70;74.80;;;;;;4995022;28;20464;-89
2021/07/10 01:52:13;;;;;;;7.93;7.13;;;18.80;74.80;;;;;;4995383;28;20492;-89
2021/07/10 01:54:40;;;;;;;7.87;7.07;;;18.70;74.80;;;;;;4995149;28;20436;-90
2021/07/10 01:57:09;;;;;;;9.33;6.70;;;18.70;74.80;;;;;;4994475;28;20483;-89
2021/07/10 01:59:37;;;;;;;8.50;6.80;;;18.70;74.70;;;;;;4997154;28;20462;-89
2021/07/10 02:02:04;;;;;;;11.33;7.40;;;18.70;74.80;;;;;;4996588;28;20507;-87
2021/07/10 02:04:32;;;;;;;8.93;7.80;;;18.70;74.90;;;;;;4994622;28;20472;-89
2021/07/10 02:07:00;;;;;;;8.60;7.70;;;18.70;75.10;;;;;;4995037;28;20586;-89
2021/07/10 02:09:27;;;;;;;8.70;6.80;;;18.70;75.00;;;;;;4994352;28;20213;-89
2021/07/10 02:11:54;;;;;;;10.80;7.83;;;18.60;74.90;;;;;;4995097;28;20811;-87
2021/07/10 02:14:22;;;;;;;9.03;7.23;;;18.60;75.10;;;;;;4997798;28;20989;-87
2021/07/10 02:16:49;;;;;;;8.93;7.10;;;18.60;75.30;;;;;;4999074;28;20484;-90
2021/07/10 02:19:17;;;;;;;9.53;6.30;;;18.60;75.20;;;;;;5014588;28;20436;-90
2021/07/10 02:21:44;;;;;;;13.63;7.50;;;18.50;75.30;;;;;;5014981;28;20444;-89
2021/07/10 02:24:11;;;;;;;10.00;8.23;;;18.50;75.50;;;;;;5005203;28;20980;-89
2021/07/10 02:26:38;;;;;;;9.93;7.60;;;18.50;76.30;;;;;;4998795;28;20444;-89
2021/07/10 02:29:06;;;;;;;9.93;7.50;;;18.50;75.60;;;;;;4998063;28;20462;-89
2021/07/10 02:31:35;;;;;;;9.70;6.63;;;18.50;75.60;;;;;;4998060;28;20453;-89
2021/07/10 02:34:02;;;;;;;9.63;5.37;;;18.40;75.20;;;;;;4997993;28;20546;-89
2021/07/10 02:36:29;;;;;;;10.80;6.00;;;18.30;75.00;;;;;;4999263;28;20567;-89
2021/07/10 02:38:56;;;;;;;7.77;6.00;;;18.30;74.90;;;;;;4999035;28;20475;-89
2021/07/10 02:41:24;;;;;;;8.10;6.17;;;18.20;75.00;;;;;;4998497;28;20810;-89
2021/07/10 02:43:51;;;;;;;15.60;6.63;;;18.20;74.70;;;;;;4998804;28;20554;-89
2021/07/10 02:46:18;;;;;;;8.20;6.13;;;18.20;74.90;;;;;;4999531;28;20448;-89
2021/07/10 02:48:46;;;;;;;10.93;7.20;;;18.10;74.80;;;;;;4999731;28;20543;-89
2021/07/10 02:51:14;;;;;;;7.47;6.37;;;18.10;74.80;;;;;;4999889;28;20436;-88
2021/07/10 02:53:41;;;;;;;9.93;7.43;;;18.00;75.00;;;;;;5000662;28;20460;-88
2021/07/10 02:56:08;;;;;;;10.87;6.80;;;18.00;75.20;;;;;;5000247;28;20487;-88
2021/07/10 02:58:35;;;;;;;11.47;8.20;;;18.00;75.20;;;;;;5000635;28;20491;-88
2021/07/10 03:01:02;;;;;;;14.60;7.10;;;18.00;75.40;;;;;;5000237;28;20440;-88
2021/07/10 03:03:29;;;;;;;9.50;8.10;;;18.00;75.40;;;;;;4999927;28;20492;-88
2021/07/10 03:05:57;;;;;;;11.33;8.00;;;17.90;75.40;;;;;;5001820;28;20456;-87
2021/07/10 03:08:24;;;;;;;11.37;7.30;;;17.90;75.30;;;;;;5002828;28;20458;-88
2021/07/10 03:10:51;;;;;;;10.60;7.53;;;17.90;75.40;;;;;;5004035;28;20456;-88
2021/07/10 03:13:17;;;;;;;10.47;7.07;;;17.90;75.90;;;;;;5001652;28;20476;-88
2021/07/10 03:15:44;;;;;;;8.50;7.50;;;17.90;75.80;;;;;;5000231;28;20448;-89
2021/07/10 03:18:11;;;;;;;14.70;6.80;;;17.90;75.90;;;;;;5002198;28;20510;-88
2021/07/10 03:20:38;;;;;;;9.50;7.03;;;17.90;75.80;;;;;;5004618;28;20527;-88
2021/07/10 03:23:06;;;;;;;8.40;6.53;;;17.80;75.60;;;;;;5007229;28;20477;-87
2021/07/10 03:25:33;;;;;;;10.47;6.13;;;17.80;75.70;;;;;;4998049;28;20469;-88
2021/07/10 03:28:01;;;;;;;10.07;6.67;;;17.80;75.80;;;;;;4996762;28;20830;-88
2021/07/10 03:30:28;;;;;;;8.97;6.60;;;17.70;75.70;;;;;;4996724;28;20460;-89
2021/07/10 03:32:56;;;;;;;9.03;6.30;;;17.70;76.00;;;;;;4996807;28;20463;-89
2021/07/10 03:35:23;;;;;;;11.27;6.87;;;17.60;76.00;;;;;;4997541;28;20463;-88
2021/07/10 03:37:51;;;;;;;11.50;6.70;;;17.60;76.10;;;;;;4996488;28;20480;-87
2021/07/10 03:40:23;;;;;;;11.93;6.50;;;17.60;76.40;;;;;;4996688;28;20457;-89
2021/07/10 03:42:49;;;;;;;12.47;6.97;;;17.60;76.40;;;;;;4996999;28;20962;-89
2021/07/10 03:45:18;;;;;;;7.30;6.10;;;17.60;76.30;;;;;;4996786;28;20459;-88
2021/07/10 03:47:45;;;;;;;7.37;6.60;;;17.60;76.50;;;;;;4996334;28;20463;-88
2021/07/10 03:50:13;;;;;;;8.90;6.17;;;17.60;76.80;;;;;;4996282;28;20543;-88
2021/07/10 03:52:41;;;;;;;7.90;6.77;;;17.60;77.00;;;;;;4996341;28;20485;-88
2021/07/10 03:55:11;;;;;;;8.97;7.23;;;17.60;77.10;;;;;;4996917;28;20453;-88
2021/07/10 03:57:40;;;;;;;9.17;5.90;;;17.50;77.40;;;;;;4996357;28;20880;-88
2021/07/10 04:00:09;;;;;;;7.30;6.17;;;17.40;77.90;;;;;;4996134;28;20919;-88
2021/07/10 04:02:37;;;;;;;8.10;7.00;;;17.40;78.50;;;;;;4995780;28;20459;-88
2021/07/10 04:05:05;;;;;;;11.47;7.07;;;17.40;79.10;;;;;;4995715;28;20447;-88
2021/07/10 04:07:32;;;;;;;8.90;6.20;;;17.40;80.20;;;;;;4995807;28;20456;-88
2021/07/10 04:09:59;;;;;;;10.37;8.43;;;17.40;80.80;;;;;;4995760;28;20551;-88
2021/07/10 04:12:26;;;;;;;10.50;8.10;;;17.50;81.90;;;;;;4995487;28;20466;-88
2021/07/10 04:14:59;;;;;;;10.50;9.50;;;17.60;83.00;;;;;;4995364;28;20447;-89
2021/07/10 04:17:27;;;;;;;14.13;10.23;;;17.70;84.90;;;;;;4995675;28;20527;-89
2021/07/10 04:19:54;;;;;;;13.13;10.63;;;17.80;86.10;;;;;;4995410;28;20460;-89
2021/07/10 04:22:20;;;;;;;10.70;9.60;;;17.90;86.50;;;;;;4995656;28;20409;-89
2021/07/10 04:24:47;;;;;;;11.57;10.13;;;18.00;87.10;;;;;;4996008;28;20452;-89
2021/07/10 04:27:14;;;;;;;12.10;9.93;;;18.10;87.20;;;;;;4995951;28;20453;-89
2021/07/10 04:29:44;;;;;;;14.63;10.20;;;18.10;88.00;;;;;;4995967;28;20440;-88
2021/07/10 04:32:12;;;;;;;10.70;9.70;;;18.20;87.40;;;;;;4995167;28;20452;-88
2021/07/10 04:34:39;;;;;;;10.60;9.50;;;18.30;87.70;;;;;;4995139;28;20464;-88
2021/07/10 04:37:07;;;;;;;12.27;8.90;;;18.40;87.30;;;;;;4994440;28;20538;-89
2021/07/10 04:39:34;;;;;;;10.63;9.53;;;18.40;87.10;;;;;;4995770;28;20761;-89
2021/07/10 04:42:01;;;;;;;9.57;8.77;;;18.50;87.30;;;;;;4995228;28;20549;-89
2021/07/10 04:44:28;;;;;;;17.50;10.03;;;18.60;87.00;;;;;;4994924;28;20475;-89
2021/07/10 04:46:55;;;;;;;11.27;10.00;;;18.60;86.80;;;;;;4995402;28;20942;-88
2021/07/10 04:49:23;;;;;;;10.77;9.60;;;18.70;86.90;;;;;;4995543;28;20433;-88
2021/07/10 04:51:50;;;;;;;12.90;10.77;;;18.70;86.70;;;;;;4995075;28;20464;-88
2021/07/10 04:54:17;;;;;;;12.63;9.60;;;18.80;86.60;;;;;;4995589;28;20478;-88
2021/07/10 04:56:43;;;;;;;13.10;9.90;;;18.80;86.50;;;;;;4994826;28;20445;-88
2021/07/10 04:59:10;;;;;;;11.73;9.43;;;18.80;86.80;;;;;;4995580;28;20460;-88
2021/07/10 05:01:37;;;;;;;11.33;10.10;;;18.90;86.70;;;;;;4996107;28;20460;-88
2021/07/10 05:04:04;;;;;;;13.27;9.63;;;18.90;86.30;;;;;;4995316;28;20462;-89
2021/07/10 05:06:32;;;;;;;9.47;8.50;;;19.00;86.50;;;;;;4996670;28;20543;-89
2021/07/10 05:08:59;;;;;;;10.70;9.70;;;19.10;86.50;;;;;;4995933;28;20531;-89
2021/07/10 05:11:26;;;;;;;12.93;10.07;;;19.10;87.90;;;;;;4995532;28;20437;-89
2021/07/10 05:13:53;;;;;;;13.47;9.93;;;19.20;87.30;;;;;;4994772;28;21005;-89
2021/07/10 05:16:20;;;;;;;10.87;9.87;;;19.30;87.20;;;;;;4994455;28;20432;-88
2021/07/10 05:18:47;;;;;;;10.93;9.67;;;19.40;87.60;;;;;;4994121;28;20480;-89
2021/07/10 05:21:14;;;;;;;12.30;9.03;;;19.40;87.60;;;;;;4994291;28;20958;-89
2021/07/10 05:23:43;;;;;;;10.83;9.67;;;19.50;86.80;;;;;;4994339;28;21073;-89
2021/07/10 05:26:10;;;;;;;10.47;9.07;;;19.50;86.00;;;;;;4994766;28;20462;-89
2021/07/10 05:28:37;;;;;;;12.10;10.13;;;19.60;86.80;;;;;;4994842;28;20459;-89
2021/07/10 05:31:03;;;;;;;15.17;9.93;;;19.60;87.50;;;;;;4994324;28;20436;-89
2021/07/10 05:33:31;;;;;;;13.33;9.60;;;19.60;87.10;;;;;;4994584;28;20504;-89
2021/07/10 05:35:58;;;;;;;15.10;9.80;;;19.70;87.80;;;;;;4994416;28;20968;-89
2021/07/10 05:38:26;;;;;;;9.73;8.83;;;19.70;87.60;;;;;;4994412;28;20480;-89
2021/07/10 05:40:54;;;;;;;11.80;8.93;;;19.80;87.60;;;;;;4994495;28;20880;-88
2021/07/10 05:43:23;;;;;;;10.93;9.33;;;19.90;87.70;;;;;;4994442;28;20510;-89
2021/07/10 05:45:51;;;;;;;9.43;8.53;;;19.90;87.00;;;;;;4994545;28;20451;-89
2021/07/10 05:48:18;;;;;;;11.13;8.90;;;20.00;86.60;;;;;;4996530;28;20444;-89
2021/07/10 05:50:45;;;;;;;10.63;9.53;;;20.10;86.30;;;;;;5011858;28;20452;-88
2021/07/10 05:53:11;;;;;;;10.37;9.37;;;20.10;85.90;;;;;;5021096;28;20472;-88
2021/07/10 05:55:38;;;;;;;10.80;9.20;;;20.20;85.90;;;;;;5016110;28;20459;-88
2021/07/10 05:58:08;;;;;;;10.73;9.57;;;20.30;86.70;;;;;;4999034;28;20494;-89
2021/07/10 06:00:35;;;;;;;9.53;8.53;;;20.40;86.00;;;;;;4998152;28;20441;-89
2021/07/10 06:03:03;;;;;;;10.83;9.73;;;20.50;84.80;;;;;;4998140;28;20839;-89
2021/07/10 06:05:29;;;;;;;12.10;8.17;;;20.70;84.30;;;;;;4998630;28;20440;-88
2021/07/10 06:07:57;;;;;;;9.30;8.47;;;20.80;83.30;;;;;;4998360;28;20516;-88
2021/07/10 06:10:27;;;;;;;12.60;9.20;;;21.00;82.70;;;;;;4997815;28;20456;-87
2021/07/10 06:12:53;;;;;;;10.70;8.23;;;21.10;81.30;;;;;;4997443;28;20456;-88
2021/07/10 06:15:22;;;;;;;9.70;8.43;;;21.30;80.10;;;;;;4997684;28;20467;-88
2021/07/10 06:17:48;;;;;;;10.20;8.20;;;21.40;79.30;;;;;;4997496;28;20476;-88
2021/07/10 06:20:17;;;;;;;9.23;8.37;;;21.50;79.40;;;;;;4998033;28;20463;-88
2021/07/10 06:22:46;;;;;;;8.80;7.40;;;21.60;78.90;;;;;;4997479;28;20463;-88
2021/07/10 06:25:14;;;;;;;9.77;8.87;;;21.70;78.10;;;;;;4997847;28;20973;-90
2021/07/10 06:27:41;;;;;;;8.53;6.50;;;21.80;78.00;;;;;;4998073;28;20866;-90
2021/07/10 06:30:09;;;;;;;9.47;8.47;;;21.90;77.60;;;;;;4997350;28;20421;-90
2021/07/10 06:32:39;;;;;;;9.10;8.27;;;21.90;76.90;;;;;;4997265;28;20472;-90
2021/07/10 06:35:07;;;;;;;10.07;8.77;;;22.00;77.30;;;;;;4997488;28;20460;-89
2021/07/10 06:37:34;;;;;;;8.20;7.50;;;22.00;76.40;;;;;;4997139;28;20480;-89
2021/07/10 06:40:01;;;;;;;11.90;9.30;;;22.00;76.80;;;;;;4997292;28;20802;-89
2021/07/10 06:42:28;;;;;;;9.90;8.00;;;22.10;77.30;;;;;;4997431;28;20942;-89
2021/07/10 06:44:54;;;;;;;11.03;8.77;;;22.10;77.40;;;;;;4997305;28;20462;-89
2021/07/10 06:47:21;;;;;;;9.13;7.87;;;22.10;77.30;;;;;;4997643;28;20456;-90
2021/07/10 06:49:50;;;;;;;9.80;8.80;;;22.10;76.10;;;;;;4997386;28;20419;-91
2021/07/10 06:52:17;;;;;;;11.13;7.90;;;22.10;75.00;;;;;;4997361;28;20804;-90
2021/07/10 06:54:44;;;;;;;9.07;8.27;;;22.00;75.50;;;;;;4997998;28;20463;-90
2021/07/10 06:57:10;;;;;;;9.33;8.10;;;22.00;75.70;;;;;;4996723;28;20464;-90
2021/07/10 06:59:37;;;;;;;11.40;7.97;;;22.10;76.50;;;;;;4996845;28;20465;-90
2021/07/10 07:02:05;;;;;;;10.40;7.17;;;22.10;76.50;;;;;;4996876;28;20949;-91
2021/07/10 07:04:32;;;;;;;12.27;8.37;;;22.00;75.00;;;;;;4997050;28;20464;-90
2021/07/10 07:07:00;;;;;;;8.03;7.17;;;22.10;74.80;;;;;;4997266;28;20456;-89
2021/07/10 07:09:26;;;;;;;9.53;8.30;;;22.20;75.60;;;;;;4996920;28;20809;-90
2021/07/10 07:11:53;;;;;;;8.00;6.40;;;22.30;75.00;;;;;;4996782;28;20437;-89
2021/07/10 07:14:20;;;;;;;8.70;7.73;;;22.50;74.10;;;;;;4996353;28;20457;-90
2021/07/10 07:16:47;;;;;;;12.77;6.73;;;22.60;73.20;;;;;;4996529;28;20437;-90
2021/07/10 07:19:14;;;;;;;8.40;6.53;;;22.90;72.60;;;;;;4996958;28;20464;-90
2021/07/10 07:21:41;;;;;;;7.00;6.30;;;23.20;69.70;;;;;;4997064;28;20463;-89
2021/07/10 07:24:09;;;;;;;7.17;6.47;;;23.40;69.70;;;;;;4996590;28;20518;-89
2021/07/10 07:26:37;;;;;;;8.70;6.17;;;23.70;67.90;;;;;;4996442;28;20456;-89
2021/07/10 07:29:04;;;;;;;6.00;5.40;;;23.90;64.20;;;;;;4996960;28;20451;-90
2021/07/10 07:31:31;;;;;;;9.33;6.97;;;24.20;62.00;;;;;;4996315;28;20456;-90
2021/07/10 07:33:58;;;;;;;6.83;5.50;;;24.50;61.90;;;;;;4996031;28;20853;-90
2021/07/10 07:36:25;;;;;;;7.00;5.13;;;24.70;61.60;;;;;;4995972;28;20809;-90
2021/07/10 07:38:52;;;;;;;6.03;4.70;;;25.00;61.60;;;;;;4996216;28;20480;-90
2021/07/10 07:41:20;;;;;;;7.70;5.83;;;25.30;60.80;;;;;;4996329;28;20444;-90
2021/07/10 07:43:46;;;;;;;7.60;5.50;;;25.70;60.00;;;;;;4996458;28;20457;-90
2021/07/10 07:46:14;;;;;;;4.63;4.20;;;25.90;58.10;;;;;;4996124;28;20444;-90
2021/07/10 07:48:42;;;;;;;9.53;5.63;;;26.00;56.70;;;;;;4996110;28;20439;-91
2021/07/10 07:51:10;;;;;;;6.43;5.83;;;26.20;56.80;;;;;;4996104;28;20467;-91
2021/07/10 07:53:37;;;;;;;9.83;5.43;;;26.30;54.30;;;;;;4996362;28;20459;-91
2021/07/10 07:56:05;;;;;;;7.83;5.77;;;26.30;54.50;;;;;;4996095;28;20452;-90
2021/07/10 07:58:33;;;;;;;9.50;6.30;;;26.30;54.40;;;;;;4996271;28;20484;-90
2021/07/10 08:01:00;;;;;;;7.43;4.83;;;26.30;53.10;;;;;;4996316;28;20432;-90
2021/07/10 08:03:26;;;;;;;5.77;5.17;;;26.30;53.40;;;;;;4995704;28;20476;-91
2021/07/10 08:05:53;;;;;;;9.10;5.40;;;26.30;52.90;;;;;;4995710;28;20456;-90
2021/07/10 08:08:20;;;;;;;5.77;4.80;;;26.40;51.90;;;;;;4995799;28;20459;-90
2021/07/10 08:10:47;;;;;;;5.20;4.80;;;26.50;51.50;;;;;;4995577;28;20460;-89
2021/07/10 08:13:14;;;;;;;5.90;5.30;;;26.60;53.00;;;;;;4995315;28;20456;-90
2021/07/10 08:15:42;;;;;;;6.90;5.03;;;26.70;52.70;;;;;;4995616;28;20448;-89
2021/07/10 08:18:09;;;;;;;6.50;5.77;;;27.00;51.90;;;;;;4995493;28;20831;-89
2021/07/10 08:20:37;;;;;;;4.93;4.10;;;27.10;52.10;;;;;;4995141;28;20440;-89
2021/07/10 08:23:04;;;;;;;9.53;6.00;;;27.20;51.60;;;;;;4995320;28;20514;-89
2021/07/10 08:25:31;;;;;;;7.53;5.57;;;27.20;50.90;;;;;;4995441;28;20475;-89
2021/07/10 08:27:58;;;;;;;6.80;6.00;;;27.20;51.10;;;;;;4995019;28;20541;-89
2021/07/10 08:30:25;;;;;;;8.37;4.60;;;27.20;51.70;;;;;;4994988;28;20437;-89
2021/07/10 08:32:53;;;;;;;5.60;5.10;;;27.20;52.60;;;;;;4995417;28;20459;-89
2021/07/10 08:35:21;;;;;;;5.30;4.77;;;27.30;52.80;;;;;;4995168;28;20467;-89
2021/07/10 08:37:48;;;;;;;5.13;4.67;;;27.50;53.20;;;;;;4994908;28;20443;-89
2021/07/10 08:40:16;;;;;;;6.50;5.20;;;27.70;52.80;;;;;;4994884;28;20436;-89
2021/07/10 08:42:43;;;;;;;6.20;5.43;;;27.90;52.00;;;;;;4994823;28;20460;-89
2021/07/10 08:45:12;;;;;;;5.20;4.43;;;28.00;50.50;;;;;;4994858;28;20775;-89
2021/07/10 08:47:42;;;;;;;7.10;5.40;;;28.10;50.50;;;;;;4995816;28;20460;-88
2021/07/10 08:50:13;;;;;;;5.50;5.00;;;28.20;50.80;;;;;;4994962;28;20459;-89
2021/07/10 08:52:40;;;;;;;8.50;7.40;;;28.20;50.10;;;;;;4995089;28;20472;-89
2021/07/10 08:55:09;;;;;;;5.30;4.80;;;28.20;50.10;;;;;;4994651;28;20451;-89
2021/07/10 08:57:36;;;;;;;5.33;4.83;;;28.20;49.80;;;;;;4995553;28;20452;-89
2021/07/10 09:00:07;;;;;;;8.67;5.57;;;28.40;50.20;;;;;;4994831;28;20852;-89
2021/07/10 09:02:34;;;;;;;4.83;4.37;;;28.60;49.10;;;;;;4994392;28;20468;-89
2021/07/10 09:05:01;;;;;;;7.87;5.70;;;28.70;49.40;;;;;;4994690;28;20460;-89
2021/07/10 09:07:29;;;;;;;5.10;4.70;;;28.80;48.70;;;;;;4994861;28;20953;-89
2021/07/10 09:09:57;;;;;;;6.43;5.27;;;29.00;47.40;;;;;;4994727;28;20459;-89
2021/07/10 09:12:31;;;;;;;6.50;5.80;;;29.10;47.30;;;;;;4995117;28;20543;-89
2021/07/10 09:15:17;;;;;;;7.93;5.43;;;29.00;47.00;;;;;;4994591;28;20455;-89
2021/07/10 09:17:46;;;;;;;6.63;5.50;;;29.10;47.00;;;;;;4994653;28;20490;-89
2021/07/10 09:20:20;;;;;;;6.50;5.40;;;29.10;47.30;;;;;;4995113;28;20405;-89
2021/07/10 09:22:49;;;;;;;7.53;5.73;;;29.10;46.20;;;;;;4996918;28;20461;-89
2021/07/10 09:25:23;;;;;;;6.03;5.30;;;29.10;47.10;;;;;;4996478;28;20492;-89
2021/07/10 09:27:50;;;;;;;5.87;5.37;;;29.10;47.60;;;;;;4994296;28;20428;-89
2021/07/10 09:30:18;;;;;;;7.70;4.73;;;29.20;48.20;;;;;;4994315;28;20476;-89
2021/07/10 09:32:44;;;;;;;7.63;5.37;;;29.40;49.20;;;;;;4994056;28;20802;-89
2021/07/10 09:35:12;;;;;;;5.70;5.17;;;29.50;48.00;;;;;;4994090;28;20433;-89
2021/07/10 09:37:39;;;;;;;9.97;6.80;;;29.60;46.10;;;;;;4995074;28;20798;-89
2021/07/10 09:40:10;;;;;;;5.87;4.53;;;29.60;45.40;;;;;;4994208;28;20845;-89
2021/07/10 09:42:39;;;;;;;6.93;4.37;;;29.60;45.90;;;;;;4993963;28;20457;-89
2021/07/10 09:45:08;;;;;;;5.30;4.90;;;29.70;45.40;;;;;;4994549;28;20436;-89
2021/07/10 09:47:37;;;;;;;5.03;4.53;;;29.70;45.40;;;;;;4994203;28;20444;-89
2021/07/10 09:50:07;;;;;;;5.27;4.73;;;29.70;45.00;;;;;;4994164;28;20444;-89
2021/07/10 09:52:36;;;;;;;5.07;4.57;;;29.80;44.60;;;;;;4994174;28;20468;-89
2021/07/10 09:55:06;;;;;;;5.10;4.60;;;29.80;44.20;;;;;;4993760;28;20939;-89
2021/07/10 09:57:35;;;;;;;5.30;4.80;;;29.80;44.20;;;;;;4993773;28;20472;-89
2021/07/10 10:00:07;;;;;;;5.30;4.83;;;30.00;44.60;;;;;;4994069;28;20516;-89
2021/07/10 10:02:43;;;;;;;5.90;5.30;;;30.10;44.30;;;;;;4994074;28;20458;-89
2021/07/10 10:05:12;;;;;;;6.63;6.03;;;30.10;43.90;;;;;;4993894;28;20428;-89
2021/07/10 10:07:44;;;;;;;7.93;5.00;;;30.10;43.20;;;;;;4994097;28;20449;-89
2021/07/10 10:10:16;;;;;;;9.13;6.87;;;30.00;42.90;;;;;;4993861;28;20977;-89
2021/07/10 10:13:12;;;;;;;6.40;5.80;;;29.90;44.00;;;;;;4993721;28;20852;-89
2021/07/10 10:15:41;;;;;;;5.97;5.37;;;29.80;44.10;;;;;;4994171;28;20463;-89
2021/07/10 10:18:09;;;;;;;13.17;6.90;;;29.70;44.70;;;;;;4993722;28;20439;-89
2021/07/10 10:20:37;;;;;;;6.90;6.00;;;29.80;46.60;;;;;;4994426;28;20448;-89
2021/07/10 10:23:06;;;;;;;8.43;6.40;;;29.90;46.20;;;;;;4994144;28;20484;-89
2021/07/10 10:25:34;;;;;;;9.40;6.00;;;30.00;45.50;;;;;;4993996;28;20444;-89
2021/07/10 10:28:05;;;;;;;6.67;5.40;;;30.20;45.40;;;;;;4993730;28;20934;-89
2021/07/10 10:30:32;;;;;;;5.90;4.57;;;30.30;44.40;;;;;;4993994;28;20417;-89
2021/07/10 10:32:59;;;;;;;5.30;4.17;;;30.40;44.40;;;;;;4993793;28;20468;-89
2021/07/10 10:35:26;;;;;;;8.73;4.70;;;30.60;44.90;;;;;;4995834;28;20436;-89
2021/07/10 10:37:53;;;;;;;5.80;4.80;;;30.80;44.90;;;;;;4997642;28;20455;-89
2021/07/10 10:40:24;;;;;;;4.80;4.37;;;31.20;43.90;;;;;;4997065;28;20479;-89
2021/07/10 10:42:53;;;;;;;4.70;4.30;;;31.60;43.20;;;;;;4997434;28;20455;-89
2021/07/10 10:45:27;;;;;;;5.83;5.30;;;32.10;42.90;;;;;;4998084;28;20467;-89
2021/07/10 10:47:54;;;;;;;4.30;3.90;;;32.60;42.10;;;;;;4997302;28;20520;-89
2021/07/10 10:50:23;;;;;;;9.70;4.90;;;33.10;38.50;;;;;;4997216;28;20448;-89
2021/07/10 10:52:51;;;;;;;5.73;4.97;;;33.80;37.50;;;;;;4996788;28;20463;-89
2021/07/10 10:55:20;;;;;;;9.40;5.73;;;33.80;32.60;;;;;;4996948;28;20459;-89
2021/07/10 10:57:50;;;;;;;5.07;4.67;;;33.70;35.80;;;;;;4997256;28;20484;-89
2021/07/10 11:00:31;;;;;;;4.50;4.10;;;33.40;36.10;;;;;;4996934;28;20499;-89
2021/07/10 11:03:10;;;;;;;5.20;4.70;;;33.20;36.20;;;;;;4997048;28;20467;-89
2021/07/10 11:05:43;;;;;;;5.90;4.73;;;33.10;35.60;;;;;;4996939;28;20494;-89
2021/07/10 11:08:27;;;;;;;4.80;4.40;;;32.90;36.00;;;;;;4996995;28;20436;-89
2021/07/10 11:11:27;;;;;;;6.90;4.50;;;32.70;37.50;;;;;;4996790;28;20419;-89
2021/07/10 11:14:08;;;;;;;5.70;5.10;;;32.80;37.70;;;;;;4996798;28;20468;-89
2021/07/10 11:16:37;;;;;;;4.77;4.37;;;33.50;38.00;;;;;;4996885;28;20436;-89
2021/07/10 11:19:06;;;;;;;6.03;5.10;;;34.50;37.30;;;;;;4996664;28;21001;-89
2021/07/10 11:21:44;;;;;;;5.10;4.60;;;35.40;35.80;;;;;;4996910;28;20417;-89
2021/07/10 11:24:25;;;;;;;5.70;5.17;;;36.10;32.40;;;;;;5007978;28;20455;-89
2021/07/10 11:27:31;;;;;;;5.20;4.70;;;36.20;32.90;;;;;;4997582;28;20420;-89
2021/07/10 11:30:18;;;;;;;5.20;4.80;;;36.00;33.70;;;;;;4993317;28;20455;-89
2021/07/10 11:32:47;;;;;;;5.13;4.70;;;35.70;34.40;;;;;;4996475;28;20906;-89
2021/07/10 11:35:33;;;;;;;4.40;4.07;;;35.60;33.90;;;;;;4996400;28;20524;-89
2021/07/10 11:38:00;;;;;;;5.70;5.10;;;36.40;33.30;;;;;;4996157;28;20417;-89
2021/07/10 11:40:38;;;;;;;5.20;4.80;;;37.50;29.40;;;;;;4996087;28;20487;-89
2021/07/10 11:43:10;;;;;;;4.80;3.85;;;38.50;27.70;;;;;;4996361;28;20589;-89
2021/07/10 11:45:46;;;;;;;4.15;3.85;;;39.10;28.00;;;;;;4995724;28;20220;-89
2021/07/10 11:48:33;;;;;;;6.55;4.13;;;39.60;25.80;;;;;;4996079;28;20191;-90
2021/07/10 11:51:06;;;;;;;3.70;3.40;;;40.50;26.60;;;;;;4996120;28;20196;-90
2021/07/10 11:53:32;;;;;;;4.63;3.58;;;41.10;26.30;;;;;;4995748;28;20221;-90
2021/07/10 11:55:59;;;;;;;4.05;3.50;;;41.30;23.60;;;;;;4996051;28;20583;-90
2021/07/10 11:58:27;;;;;;;3.65;3.35;;;41.30;25.00;;;;;;4995802;28;20212;-90
2021/07/10 12:00:59;;;;;;;3.83;3.53;;;41.00;25.60;;;;;;4996656;28;20212;-90
2021/07/10 12:03:27;;;;;;;3.72;3.42;;;40.60;25.90;;;;;;4995684;28;20240;-90
2021/07/10 12:05:57;;;;;;;4.53;3.90;;;40.10;26.70;;;;;;4995607;28;20224;-90
2021/07/10 12:08:25;;;;;;;4.60;4.15;;;39.40;26.00;;;;;;4995642;28;20204;-90
2021/07/10 12:10:54;;;;;;;4.65;4.28;;;38.60;27.30;;;;;;4996126;28;20203;-90
2021/07/10 12:13:23;;;;;;;5.00;4.30;;;37.70;28.40;;;;;;4995876;28;20220;-90
2021/07/10 12:15:52;;;;;;;4.73;4.23;;;36.80;29.90;;;;;;4995724;28;20197;-90
2021/07/10 12:18:20;;;;;;;5.13;4.50;;;36.10;31.00;;;;;;4995252;28;20200;-90
2021/07/10 12:20:56;;;;;;;4.30;4.00;;;35.40;32.10;;;;;;4995516;28;20833;-90
2021/07/10 12:23:25;;;;;;;5.20;4.83;;;34.90;33.70;;;;;;4995469;28;20984;-90
2021/07/10 12:25:55;;;;;;;5.40;5.00;;;34.50;34.70;;;;;;4995458;28;20439;-90
2021/07/10 12:28:37;;;;;;;4.63;4.23;;;34.10;35.50;;;;;;4995446;28;20440;-90
2021/07/10 12:31:06;;;;;;;6.50;5.80;;;33.80;36.30;;;;;;4995096;28;20945;-90
2021/07/10 12:33:42;;;;;;;6.20;5.70;;;33.60;36.60;;;;;;4994996;28;20961;-90
2021/07/10 12:36:25;;;;;;;7.10;5.50;;;33.30;37.10;;;;;;4996030;28;20439;-90
2021/07/10 12:39:01;;;;;;;5.43;4.90;;;33.10;38.00;;;;;;4995161;28;20416;-90
2021/07/10 12:41:33;;;;;;;5.57;5.03;;;32.90;38.60;;;;;;4995650;28;20823;-90
2021/07/10 12:44:12;;;;;;;5.03;4.63;;;32.80;39.00;;;;;;4994928;28;20528;-90
2021/07/10 12:47:03;;;;;;;6.20;5.60;;;32.70;39.00;;;;;;4995233;28;20442;-89
2021/07/10 12:49:32;;;;;;;5.17;4.67;;;32.50;37.30;;;;;;4995012;28;20420;-89
2021/07/10 12:52:01;;;;;;;4.80;4.33;;;32.20;36.40;;;;;;4995116;28;20416;-89